Time;durP1;ratioP1;P1;durP2;ratioP2;P2;SDS_P1;SDS_P2;PMS_P1;PMS_P2;Temp;Humidity;BMP_temperature;BMP_pressure;BME280_temperature;BME280_humidity;BME280_pressure;Samples;Min_cycle;Max_cycle;Signal;HPM_P1;HPM_P2
2022/07/12 00:00:50;;;;;;;;;;;21.20;99.90;;;;;;5076146;28;19911;-75
2022/07/12 00:03:15;;;;;;;;;;;21.20;99.90;;;;;;5076118;28;19915;-75
2022/07/12 00:05:41;;;;;;;;;;;21.20;99.90;;;;;;5076102;28;19904;-76
2022/07/12 00:08:07;;;;;;;;;;;21.20;99.90;;;;;;5075752;28;20355;-75
2022/07/12 00:10:32;;;;;;;;;;;21.10;99.90;;;;;;5058370;28;19908;-76
2022/07/12 00:12:58;;;;;;;;;;;21.10;99.90;;;;;;5075730;28;19905;-75
2022/07/12 00:15:23;;;;;;;;;;;21.00;99.90;;;;;;5058330;28;19983;-75
2022/07/12 00:17:50;;;;;;;;;;;21.00;99.90;;;;;;5075681;28;19904;-75
2022/07/12 00:20:15;;;;;;;;;;;21.00;99.90;;;;;;5075863;28;19916;-76
2022/07/12 00:22:41;;;;;;;;;;;21.00;99.90;;;;;;5075726;28;19911;-76
2022/07/12 00:25:07;;;;;;;;;;;21.00;99.90;;;;;;5075241;28;20355;-76
2022/07/12 00:27:32;;;;;;;;;;;21.00;99.90;;;;;;5075977;28;19904;-76
2022/07/12 00:29:58;;;;;;;;;;;21.00;99.90;;;;;;5075272;28;19912;-75
2022/07/12 00:32:23;;;;;;;;;;;21.00;99.90;;;;;;5075823;28;19950;-75
2022/07/12 00:34:49;;;;;;;;;;;21.00;99.90;;;;;;5075103;28;19908;-75
2022/07/12 00:37:14;;;;;;;;;;;21.00;99.90;;;;;;5075805;28;20409;-76
2022/07/12 00:39:40;;;;;;;;;;;21.00;99.90;;;;;;5075557;28;19905;-75
2022/07/12 00:42:05;;;;;;;;;;;20.90;99.90;;;;;;5075085;28;19900;-76
2022/07/12 00:44:33;;;;;;;;;;;20.90;99.90;;;;;;5075444;28;19904;-75
2022/07/12 00:46:59;;;;;;;;;;;21.00;99.90;;;;;;5074934;28;19908;-76
2022/07/12 00:49:25;;;;;;;;;;;20.90;99.90;;;;;;5075240;28;20034;-76
2022/07/12 00:51:51;;;;;;;;;;;20.90;99.90;;;;;;5074719;28;20370;-76
2022/07/12 00:54:16;;;;;;;;;;;20.90;99.90;;;;;;5075468;28;19904;-76
2022/07/12 00:56:42;;;;;;;;;;;20.90;99.90;;;;;;5075553;28;19905;-76
2022/07/12 00:59:08;;;;;;;;;;;20.90;99.90;;;;;;5074870;28;19904;-76
2022/07/12 01:01:33;;;;;;;;;;;20.90;99.90;;;;;;5074327;28;19911;-76
2022/07/12 01:04:00;;;;;;;;;;;20.80;99.90;;;;;;5074714;28;19905;-76
2022/07/12 01:06:26;;;;;;;;;;;20.80;99.90;;;;;;5075300;28;19908;-76
2022/07/12 01:08:51;;;;;;;;;;;20.80;99.90;;;;;;5074517;28;19908;-76
2022/07/12 01:11:17;;;;;;;;;;;20.80;99.90;;;;;;5075191;28;19908;-76
2022/07/12 01:13:44;;;;;;;;;;;20.80;99.90;;;;;;5075117;28;20339;-77
2022/07/12 01:16:10;;;;;;;;;;;20.90;99.90;;;;;;5074257;28;19904;-76
2022/07/12 01:18:36;;;;;;;;;;;20.90;99.90;;;;;;5075087;28;19904;-77
2022/07/12 01:21:03;;;;;;;;;;;20.90;99.90;;;;;;5074518;28;19904;-77
2022/07/12 01:23:29;;;;;;;;;;;20.90;99.90;;;;;;5075005;28;19913;-76
2022/07/12 01:25:55;;;;;;;;;;;20.90;99.90;;;;;;5074283;28;19916;-76
2022/07/12 01:28:20;;;;;;;;;;;20.90;99.90;;;;;;5056734;28;19908;-76
2022/07/12 01:30:47;;;;;;;;;;;20.80;99.90;;;;;;5074833;28;20362;-75
2022/07/12 01:33:13;;;;;;;;;;;20.90;99.90;;;;;;5056399;28;19966;-75
2022/07/12 01:35:39;;;;;;;;;;;20.90;99.90;;;;;;5074699;28;20351;-76
2022/07/12 01:38:05;;;;;;;;;;;20.80;99.90;;;;;;5074083;28;19908;-75
2022/07/12 01:40:30;;;;;;;;;;;20.90;99.90;;;;;;5074589;28;19959;-77
2022/07/12 01:42:56;;;;;;;;;;;20.90;99.90;;;;;;5073647;28;19908;-76
2022/07/12 01:45:22;;;;;;;;;;;20.90;99.90;;;;;;5074005;28;19916;-76
2022/07/12 01:47:48;;;;;;;;;;;20.80;99.90;;;;;;5074757;28;19904;-76
2022/07/12 01:50:14;;;;;;;;;;;20.80;99.90;;;;;;5073656;28;19993;-76
2022/07/12 01:52:40;;;;;;;;;;;20.80;99.90;;;;;;5074168;28;20275;-76
2022/07/12 01:55:06;;;;;;;;;;;20.80;99.90;;;;;;5073545;28;20317;-76
2022/07/12 01:57:32;;;;;;;;;;;20.80;99.90;;;;;;5074290;28;19958;-76
2022/07/12 02:00:00;;;;;;;;;;;20.70;99.90;;;;;;5073670;28;19905;-75
2022/07/12 02:02:27;;;;;;;;;;;20.60;99.90;;;;;;5074352;28;19944;-76
2022/07/12 02:04:53;;;;;;;;;;;20.60;99.90;;;;;;5073397;28;19904;-75
2022/07/12 02:07:19;;;;;;;;;;;20.60;99.90;;;;;;5073931;28;19912;-76
2022/07/12 02:09:44;;;;;;;;;;;20.50;99.90;;;;;;5073879;28;19908;-77
2022/07/12 02:12:10;;;;;;;;;;;20.30;99.90;;;;;;5072876;28;19908;-76
2022/07/12 02:14:35;;;;;;;;;;;20.30;99.90;;;;;;5073997;28;20363;-77
2022/07/12 02:17:01;;;;;;;;;;;20.20;99.90;;;;;;5073375;28;19957;-76
2022/07/12 02:19:26;;;;;;;;;;;20.10;99.90;;;;;;5073907;28;19904;-75
2022/07/12 02:21:52;;;;;;;;;;;20.00;99.90;;;;;;5073573;28;20347;-75
2022/07/12 02:24:18;;;;;;;;;;;19.90;99.90;;;;;;5073192;28;19995;-76
2022/07/12 02:26:43;;;;;;;;;;;19.90;99.90;;;;;;5073534;28;19911;-76
2022/07/12 02:29:09;;;;;;;;;;;19.80;99.90;;;;;;5072768;28;20022;-76
2022/07/12 02:31:34;;;;;;;;;;;19.80;99.90;;;;;;5073435;28;19974;-76
2022/07/12 02:34:00;;;;;;;;;;;19.80;99.90;;;;;;5073477;28;19987;-76
2022/07/12 02:36:26;;;;;;;;;;;19.70;99.90;;;;;;5055719;28;19904;-76
2022/07/12 02:38:51;;;;;;;;;;;19.50;99.90;;;;;;5073512;28;19904;-76
2022/07/12 02:41:17;;;;;;;;;;;19.50;99.90;;;;;;5072992;28;20306;-76
2022/07/12 02:43:43;;;;;;;;;;;19.50;99.90;;;;;;5073468;28;19909;-76
2022/07/12 02:46:10;;;;;;;;;;;19.50;99.90;;;;;;5073049;28;19923;-76
2022/07/12 02:48:35;;;;;;;;;;;19.40;99.90;;;;;;5073307;28;19919;-76
2022/07/12 02:51:02;;;;;;;;;;;19.40;99.90;;;;;;5073019;28;20267;-77
2022/07/12 02:53:27;;;;;;;;;;;19.30;99.90;;;;;;5073200;28;19999;-76
2022/07/12 02:55:53;;;;;;;;;;;19.30;99.90;;;;;;5073098;28;20327;-77
2022/07/12 02:58:19;;;;;;;;;;;19.30;99.90;;;;;;5072664;28;19909;-78
2022/07/12 03:00:44;;;;;;;;;;;19.40;99.90;;;;;;5073189;28;19910;-78
2022/07/12 03:03:11;;;;;;;;;;;19.40;99.90;;;;;;5072540;28;20042;-77
2022/07/12 03:05:36;;;;;;;;;;;19.30;99.90;;;;;;5072575;28;19911;-77
2022/07/12 03:08:06;;;;;;;;;;;19.30;99.90;;;;;;5072447;28;19905;-76
2022/07/12 03:10:32;;;;;;;;;;;19.20;99.90;;;;;;5073022;28;19909;-77
2022/07/12 03:12:57;;;;;;;;;;;19.10;99.90;;;;;;5072407;28;20251;-76
2022/07/12 03:15:23;;;;;;;;;;;19.10;99.90;;;;;;5072743;28;20382;-76
2022/07/12 03:17:48;;;;;;;;;;;19.10;99.90;;;;;;5073235;28;19999;-76
2022/07/12 03:20:14;;;;;;;;;;;19.00;99.90;;;;;;5072324;28;19912;-77
2022/07/12 03:22:40;;;;;;;;;;;19.00;99.90;;;;;;5072651;28;20355;-77
2022/07/12 03:25:07;;;;;;;;;;;18.90;99.90;;;;;;5071744;28;19916;-77
2022/07/12 03:27:32;;;;;;;;;;;18.80;99.90;;;;;;5072735;28;19911;-80
2022/07/12 03:29:58;;;;;;;;;;;18.90;99.90;;;;;;5071863;28;20014;-78
2022/07/12 03:32:24;;;;;;;;;;;18.80;99.90;;;;;;5072851;28;19929;-77
2022/07/12 03:34:49;;;;;;;;;;;18.80;99.90;;;;;;5072750;28;20350;-78
2022/07/12 03:37:15;;;;;;;;;;;18.80;99.90;;;;;;5054007;28;20843;-78
2022/07/12 03:39:40;;;;;;;;;;;18.70;99.90;;;;;;5054821;28;19905;-82
2022/07/12 03:42:06;;;;;;;;;;;18.70;99.90;;;;;;5072116;28;19973;-79
2022/07/12 03:44:33;;;;;;;;;;;18.60;99.90;;;;;;5072556;28;20369;-78
2022/07/12 03:46:59;;;;;;;;;;;18.60;99.90;;;;;;5054047;28;19908;-77
2022/07/12 03:49:24;;;;;;;;;;;18.60;99.90;;;;;;5072182;28;19915;-78
2022/07/12 03:51:50;;;;;;;;;;;18.50;99.90;;;;;;5072641;28;20005;-79
2022/07/12 03:54:15;;;;;;;;;;;18.50;99.90;;;;;;5071696;28;19947;-78
2022/07/12 03:59:25;;;;;;;;;;;18.50;99.90;;;;;;5072341;28;19915;-80
2022/07/12 04:01:51;;;;;;;;;;;18.50;99.90;;;;;;5072414;28;19905;-80
2022/07/12 04:04:16;;;;;;;;;;;18.50;99.90;;;;;;5071923;28;19904;-79
2022/07/12 04:06:42;;;;;;;;;;;18.50;99.90;;;;;;5072444;28;19930;-79
2022/07/12 04:09:08;;;;;;;;;;;18.50;99.90;;;;;;5071789;28;19908;-77
2022/07/12 04:11:34;;;;;;;;;;;18.50;99.90;;;;;;5072765;28;19916;-78
2022/07/12 04:13:59;;;;;;;;;;;18.50;99.90;;;;;;5071974;28;20007;-76
2022/07/12 04:16:26;;;;;;;;;;;18.50;99.90;;;;;;5072119;28;19908;-77
2022/07/12 04:18:51;;;;;;;;;;;18.50;99.90;;;;;;5072098;28;19904;-78
2022/07/12 04:21:17;;;;;;;;;;;18.60;99.90;;;;;;5071706;28;20368;-78
2022/07/12 04:23:42;;;;;;;;;;;18.60;99.90;;;;;;5072247;28;20343;-78
2022/07/12 04:26:08;;;;;;;;;;;18.60;99.90;;;;;;5071688;28;20375;-77
2022/07/12 04:28:34;;;;;;;;;;;18.60;99.90;;;;;;5072120;28;19998;-78
2022/07/12 04:31:00;;;;;;;;;;;18.60;99.90;;;;;;5071834;28;19908;-78
2022/07/12 04:33:26;;;;;;;;;;;18.60;99.90;;;;;;5071920;28;19987;-77
2022/07/12 04:35:51;;;;;;;;;;;18.60;99.90;;;;;;5072142;28;19908;-78
2022/07/12 04:38:17;;;;;;;;;;;18.70;99.90;;;;;;5057210;28;19931;-78
2022/07/12 04:40:42;;;;;;;;;;;18.70;99.90;;;;;;5075586;28;20355;-78
2022/07/12 04:43:08;;;;;;;;;;;18.70;99.90;;;;;;5075190;28;19904;-78
2022/07/12 04:45:33;;;;;;;;;;;18.70;99.90;;;;;;5075349;28;19923;-77
2022/07/12 04:47:59;;;;;;;;;;;18.70;99.90;;;;;;5075712;28;19905;-79
2022/07/12 04:50:25;;;;;;;;;;;18.70;99.90;;;;;;5075104;28;20324;-78
2022/07/12 04:52:50;;;;;;;;;;;18.70;99.90;;;;;;5075644;28;20023;-78
2022/07/12 04:55:16;;;;;;;;;;;18.70;99.90;;;;;;5075009;28;20347;-78
2022/07/12 04:57:41;;;;;;;;;;;18.70;99.90;;;;;;5075396;28;19911;-78
2022/07/12 05:00:08;;;;;;;;;;;18.70;99.90;;;;;;5074660;28;19905;-78
2022/07/12 05:02:33;;;;;;;;;;;18.60;99.90;;;;;;5075402;28;19940;-78
2022/07/12 05:04:59;;;;;;;;;;;18.60;99.90;;;;;;5075461;28;19947;-78
2022/07/12 05:07:25;;;;;;;;;;;18.60;99.90;;;;;;5074825;28;20031;-76
2022/07/12 05:09:53;;;;;;;;;;;18.60;99.90;;;;;;5074863;28;20248;-77
2022/07/12 05:12:19;;;;;;;;;;;18.60;99.90;;;;;;5074532;28;19915;-77
2022/07/12 05:14:44;;;;;;;;;;;18.60;99.90;;;;;;5057196;28;20282;-77
2022/07/12 05:17:10;;;;;;;;;;;18.60;99.90;;;;;;5074318;28;19995;-77
2022/07/12 05:19:39;;;;;;;;;;;18.60;99.90;;;;;;5074834;28;19905;-77
2022/07/12 05:22:05;;;;;;;;;;;18.60;99.90;;;;;;5074922;28;19912;-77
2022/07/12 05:24:30;;;;;;;;;;;18.60;99.90;;;;;;5074685;28;19904;-77
2022/07/12 05:26:56;;;;;;;;;;;18.70;99.90;;;;;;5056883;28;19911;-77
2022/07/12 05:29:22;;;;;;;;;;;18.60;99.90;;;;;;5073969;28;20756;-77
2022/07/12 05:31:47;;;;;;;;;;;18.70;99.90;;;;;;5075270;28;19930;-77
2022/07/12 05:34:13;;;;;;;;;;;18.70;99.90;;;;;;5074163;28;20041;-77
2022/07/12 05:36:39;;;;;;;;;;;18.60;99.90;;;;;;5074792;28;19904;-77
2022/07/12 05:39:04;;;;;;;;;;;18.70;99.90;;;;;;5074342;28;20339;-77
2022/07/12 05:41:30;;;;;;;;;;;18.70;99.90;;;;;;5074365;28;19940;-77
2022/07/12 05:43:55;;;;;;;;;;;18.70;99.90;;;;;;5074530;28;20002;-77
2022/07/12 05:46:21;;;;;;;;;;;18.80;99.90;;;;;;5073184;28;20432;-77
2022/07/12 05:48:46;;;;;;;;;;;18.80;99.90;;;;;;5056129;28;19930;-77
2022/07/12 05:53:56;;;;;;;;;;;18.80;99.90;;;;;;5074256;28;19911;-76
2022/07/12 05:56:22;;;;;;;;;;;18.80;99.90;;;;;;5073404;28;20007;-76
2022/07/12 05:58:47;;;;;;;;;;;18.90;99.90;;;;;;5074272;28;19904;-76
2022/07/12 06:01:13;;;;;;;;;;;18.90;99.90;;;;;;5073659;28;19904;-76
2022/07/12 06:03:38;;;;;;;;;;;18.90;99.90;;;;;;5074258;28;19905;-76
2022/07/12 06:06:04;;;;;;;;;;;18.90;99.90;;;;;;5074180;28;19929;-77
2022/07/12 06:08:30;;;;;;;;;;;18.80;99.90;;;;;;5073294;28;20339;-77
2022/07/12 06:10:55;;;;;;;;;;;18.80;99.90;;;;;;5074099;28;19912;-78
2022/07/12 06:13:21;;;;;;;;;;;18.90;99.90;;;;;;5073174;28;19912;-77
2022/07/12 06:15:46;;;;;;;;;;;18.80;99.90;;;;;;5074223;28;20394;-78
2022/07/12 06:18:12;;;;;;;;;;;18.70;99.90;;;;;;5073740;28;20346;-77
2022/07/12 06:20:38;;;;;;;;;;;18.70;99.90;;;;;;5070362;28;19904;-78
2022/07/12 06:23:03;;;;;;;;;;;18.70;99.90;;;;;;5073558;28;19951;-78
2022/07/12 06:25:29;;;;;;;;;;;18.80;99.90;;;;;;5072794;28;19908;-77
2022/07/12 06:27:55;;;;;;;;;;;18.80;99.90;;;;;;5073553;28;19908;-77
2022/07/12 06:30:21;;;;;;;;;;;18.70;99.90;;;;;;5072819;28;19908;-77
2022/07/12 06:32:47;;;;;;;;;;;18.80;99.90;;;;;;5073418;28;19915;-77
2022/07/12 06:35:13;;;;;;;;;;;18.80;99.90;;;;;;5073096;28;19912;-78
2022/07/12 06:37:39;;;;;;;;;;;18.80;99.90;;;;;;5055730;28;20374;-79
2022/07/12 06:40:06;;;;;;;;;;;18.80;99.90;;;;;;5073157;28;19905;-79
2022/07/12 06:42:31;;;;;;;;;;;18.90;99.90;;;;;;5072664;28;19966;-78
2022/07/12 06:44:57;;;;;;;;;;;18.90;99.90;;;;;;5072556;28;19916;-78
2022/07/12 06:47:22;;;;;;;;;;;18.90;99.90;;;;;;5054930;28;19979;-78
2022/07/12 06:49:48;;;;;;;;;;;18.90;99.90;;;;;;5073359;28;19908;-78
2022/07/12 06:52:13;;;;;;;;;;;18.90;99.90;;;;;;5072659;28;20351;-78
2022/07/12 06:54:39;;;;;;;;;;;18.90;99.90;;;;;;5073103;28;19905;-77
2022/07/12 06:57:05;;;;;;;;;;;18.90;99.90;;;;;;5073362;28;19908;-78
2022/07/12 06:59:31;;;;;;;;;;;18.80;99.90;;;;;;5071720;28;20004;-77
2022/07/12 07:01:57;;;;;;;;;;;18.90;99.90;;;;;;5072853;28;19912;-78
2022/07/12 07:04:23;;;;;;;;;;;18.90;99.90;;;;;;5072062;28;19904;-77
2022/07/12 07:06:49;;;;;;;;;;;18.90;99.90;;;;;;5072651;28;19986;-76
2022/07/12 07:09:14;;;;;;;;;;;18.90;99.90;;;;;;5054401;28;20012;-76
2022/07/12 07:11:40;;;;;;;;;;;18.90;99.90;;;;;;5073038;28;19909;-78
2022/07/12 07:14:06;;;;;;;;;;;18.90;99.90;;;;;;5072801;28;19990;-77
2022/07/12 07:16:32;;;;;;;;;;;18.80;99.90;;;;;;5072519;28;19908;-77
2022/07/12 07:18:57;;;;;;;;;;;18.90;99.90;;;;;;5055493;28;20272;-76
2022/07/12 07:21:24;;;;;;;;;;;18.90;99.90;;;;;;5072132;28;20378;-76
2022/07/12 07:23:50;;;;;;;;;;;18.90;99.90;;;;;;5072367;28;20351;-77
2022/07/12 07:26:15;;;;;;;;;;;18.90;99.90;;;;;;5071207;28;19991;-76
2022/07/12 07:31:25;;;;;;;;;;;19.00;99.90;;;;;;5071950;28;19920;-77
2022/07/12 07:33:51;;;;;;;;;;;18.90;99.90;;;;;;5072663;28;19904;-77
2022/07/12 07:36:16;;;;;;;;;;;18.90;99.90;;;;;;5071663;28;19904;-77
2022/07/12 07:38:42;;;;;;;;;;;19.00;99.90;;;;;;5072791;28;19970;-77
2022/07/12 07:41:07;;;;;;;;;;;18.90;99.90;;;;;;5072084;28;19905;-77
2022/07/12 07:43:33;;;;;;;;;;;19.00;99.90;;;;;;5071372;28;19904;-75
2022/07/12 07:46:01;;;;;;;;;;;18.90;99.90;;;;;;5072365;28;19920;-79
2022/07/12 07:48:26;;;;;;;;;;;18.90;99.90;;;;;;5070956;28;19909;-80
2022/07/12 07:50:52;;;;;;;;;;;19.00;99.90;;;;;;5083743;28;19908;-79
2022/07/12 07:53:17;;;;;;;;;;;19.00;99.90;;;;;;5091827;28;19904;-77
2022/07/12 07:55:43;;;;;;;;;;;19.00;99.90;;;;;;5092572;28;19904;-77
2022/07/12 07:58:08;;;;;;;;;;;19.00;99.90;;;;;;5092475;28;19950;-79
2022/07/12 08:00:34;;;;;;;;;;;19.10;99.90;;;;;;5091967;28;19908;-80
2022/07/12 08:02:59;;;;;;;;;;;19.10;99.90;;;;;;5092455;28;20247;-79
2022/07/12 08:05:25;;;;;;;;;;;19.20;99.90;;;;;;5073706;28;19930;-81
2022/07/12 08:07:50;;;;;;;;;;;19.10;99.90;;;;;;5092368;28;19904;-79
2022/07/12 08:10:16;;;;;;;;;;;19.20;99.90;;;;;;5074404;28;20007;-78
2022/07/12 08:12:42;;;;;;;;;;;19.20;99.90;;;;;;5076262;28;19908;-79
2022/07/12 08:15:07;;;;;;;;;;;19.30;99.90;;;;;;5058096;28;19969;-78
2022/07/12 08:17:33;;;;;;;;;;;19.30;99.90;;;;;;5075306;28;20179;-78
2022/07/12 08:19:59;;;;;;;;;;;19.30;99.90;;;;;;5075980;28;19966;-78
2022/07/12 08:22:24;;;;;;;;;;;19.40;99.90;;;;;;5075527;28;19905;-77
2022/07/12 08:24:50;;;;;;;;;;;19.40;99.90;;;;;;5076275;28;19911;-77
2022/07/12 08:27:16;;;;;;;;;;;19.50;99.90;;;;;;5075172;28;20367;-78
2022/07/12 08:29:41;;;;;;;;;;;19.50;99.90;;;;;;5057496;28;19912;-76
2022/07/12 08:32:07;;;;;;;;;;;19.50;99.90;;;;;;5075711;28;19922;-77
2022/07/12 08:34:33;;;;;;;;;;;19.50;99.90;;;;;;5075080;28;20011;-76
2022/07/12 08:36:59;;;;;;;;;;;19.50;99.90;;;;;;5074614;28;20024;-76
2022/07/12 08:39:24;;;;;;;;;;;19.50;99.90;;;;;;5075263;28;19973;-77
2022/07/12 08:41:50;;;;;;;;;;;19.50;99.90;;;;;;5075605;28;20266;-77
2022/07/12 08:44:15;;;;;;;;;;;19.50;99.90;;;;;;5056715;28;20366;-76
2022/07/12 08:46:41;;;;;;;;;;;19.50;99.90;;;;;;5074431;28;19916;-76
2022/07/12 08:49:09;;;;;;;;;;;19.50;99.90;;;;;;5074903;28;19954;-75
2022/07/12 08:51:35;;;;;;;;;;;19.60;99.90;;;;;;5074061;28;20367;-76
2022/07/12 08:54:07;;;;;;;;;;;19.60;99.90;;;;;;5074531;28;19955;-75
2022/07/12 08:56:34;;;;;;;;;;;19.50;99.90;;;;;;5074220;28;19904;-76
2022/07/12 08:59:13;;;;;;;;;;;19.60;99.90;;;;;;5074476;28;20355;-76
2022/07/12 09:01:40;;;;;;;;;;;19.60;99.90;;;;;;5074185;28;19904;-76
2022/07/12 09:04:13;;;;;;;;;;;19.60;99.90;;;;;;5074291;28;20007;-76
2022/07/12 09:06:38;;;;;;;;;;;19.70;99.90;;;;;;5074028;28;19930;-76
2022/07/12 09:09:04;;;;;;;;;;;19.60;99.90;;;;;;5074265;28;19908;-76
2022/07/12 09:11:30;;;;;;;;;;;19.60;99.90;;;;;;5055806;28;20359;-76
2022/07/12 09:13:56;;;;;;;;;;;19.60;99.90;;;;;;5074173;28;19908;-76
2022/07/12 09:16:22;;;;;;;;;;;19.70;99.90;;;;;;5073920;28;19911;-76
2022/07/12 09:18:48;;;;;;;;;;;19.70;99.90;;;;;;5074214;28;19904;-76
2022/07/12 09:21:27;;;;;;;;;;;19.70;99.90;;;;;;5073556;28;20256;-76
2022/07/12 09:23:57;;;;;;;;;;;19.70;99.90;;;;;;5056103;28;19904;-76
2022/07/12 09:26:24;;;;;;;;;;;19.80;99.90;;;;;;5073563;28;19904;-76
2022/07/12 09:28:50;;;;;;;;;;;19.80;99.90;;;;;;5074357;28;19986;-74
2022/07/12 09:31:16;;;;;;;;;;;19.80;99.90;;;;;;5073790;28;19912;-75
2022/07/12 09:36:26;;;;;;;;;;;19.70;99.90;;;;;;5073170;28;19915;-76
2022/07/12 09:38:53;;;;;;;;;;;19.70;99.90;;;;;;5055721;28;20267;-75
2022/07/12 09:41:20;;;;;;;;;;;19.60;99.90;;;;;;5073199;28;19911;-75
2022/07/12 09:43:45;;;;;;;;;;;19.70;99.90;;;;;;5073850;28;19909;-76
2022/07/12 09:46:13;;;;;;;;;;;19.70;99.90;;;;;;5073725;28;20409;-76
2022/07/12 09:48:39;;;;;;;;;;;19.70;99.90;;;;;;5072791;28;19908;-75
2022/07/12 09:51:06;;;;;;;;;;;19.70;99.90;;;;;;5073285;28;20283;-77
2022/07/12 09:53:37;;;;;;;;;;;19.60;99.90;;;;;;5073046;28;19905;-76
2022/07/12 09:56:05;;;;;;;;;;;19.70;99.90;;;;;;5073447;28;19911;-76
2022/07/12 09:58:34;;;;;;;;;;;19.70;99.90;;;;;;5073084;28;20358;-76
2022/07/12 10:01:00;;;;;;;;;;;19.80;99.90;;;;;;5073394;28;20387;-76
2022/07/12 10:03:27;;;;;;;;;;;19.90;99.90;;;;;;5072642;28;19927;-75
2022/07/12 10:05:54;;;;;;;;;;;20.00;99.90;;;;;;5072988;28;19904;-75
2022/07/12 10:08:20;;;;;;;;;;;20.10;99.90;;;;;;5072452;28;19911;-75
2022/07/12 10:10:47;;;;;;;;;;;20.20;99.90;;;;;;5072775;28;20359;-76
2022/07/12 10:13:13;;;;;;;;;;;20.30;99.90;;;;;;5073097;28;19949;-75
2022/07/12 10:15:43;;;;;;;;;;;20.40;99.90;;;;;;5072057;28;19934;-76
2022/07/12 10:18:14;;;;;;;;;;;20.50;99.90;;;;;;5072783;28;19904;-76
2022/07/12 10:20:45;;;;;;;;;;;20.60;99.90;;;;;;5072331;28;19997;-76
2022/07/12 10:23:20;;;;;;;;;;;20.70;99.90;;;;;;5073121;28;20354;-77
2022/07/12 10:25:48;;;;;;;;;;;20.80;99.90;;;;;;5072740;28;20330;-77
2022/07/12 10:28:13;;;;;;;;;;;20.80;99.90;;;;;;5072895;28;19905;-76
2022/07/12 10:30:43;;;;;;;;;;;20.90;99.90;;;;;;5072452;28;19908;-77
2022/07/12 10:33:16;;;;;;;;;;;20.80;99.90;;;;;;5072869;28;20248;-76
2022/07/12 10:35:57;;;;;;;;;;;20.90;99.90;;;;;;5072524;28;19912;-76
2022/07/12 10:38:22;;;;;;;;;;;20.90;99.90;;;;;;5072240;28;19996;-77
2022/07/12 10:40:49;;;;;;;;;;;20.90;99.90;;;;;;5074462;28;19982;-77
2022/07/12 10:43:16;;;;;;;;;;;20.90;99.90;;;;;;5073378;28;19904;-76
2022/07/12 10:45:45;;;;;;;;;;;21.00;99.90;;;;;;5070953;28;19930;-77
2022/07/12 10:48:13;;;;;;;;;;;21.00;99.90;;;;;;5076295;28;20011;-76
2022/07/12 10:53:20;;;;;;;;;;;21.20;99.90;;;;;;5073115;28;19970;-76
2022/07/12 10:56:15;;;;;;;;;;;21.30;99.90;;;;;;5072892;28;19909;-76
2022/07/12 10:58:53;;;;;;;;;;;21.40;99.90;;;;;;5069796;28;19905;-76
2022/07/12 11:01:18;;;;;;;;;;;21.50;99.90;;;;;;5072474;28;19904;-75
2022/07/12 11:03:44;;;;;;;;;;;21.60;99.90;;;;;;5072895;28;19911;-76
2022/07/12 11:06:10;;;;;;;;;;;21.60;99.90;;;;;;5072666;28;19944;-76
2022/07/12 11:08:48;;;;;;;;;;;21.60;99.90;;;;;;5072156;28;19912;-76
2022/07/12 11:11:14;;;;;;;;;;;21.60;99.90;;;;;;5072908;28;19915;-76
2022/07/12 11:13:39;;;;;;;;;;;21.60;99.90;;;;;;5072163;28;19908;-77
2022/07/12 11:16:05;;;;;;;;;;;21.70;99.90;;;;;;5072490;28;19967;-76
2022/07/12 11:18:31;;;;;;;;;;;21.70;99.90;;;;;;5071745;28;19911;-76
2022/07/12 11:20:57;;;;;;;;;;;21.90;99.90;;;;;;5072567;28;19904;-76
2022/07/12 11:23:26;;;;;;;;;;;22.00;99.90;;;;;;5072032;28;19910;-76
2022/07/12 11:25:56;;;;;;;;;;;22.20;99.90;;;;;;5072208;28;19995;-76
2022/07/12 11:28:23;;;;;;;;;;;22.30;99.90;;;;;;5071368;28;19904;-76
2022/07/12 11:30:49;;;;;;;;;;;22.40;99.90;;;;;;5072524;28;19987;-76
2022/07/12 11:33:15;;;;;;;;;;;22.60;99.90;;;;;;5072547;28;20064;-76
2022/07/12 11:35:42;;;;;;;;;;;22.60;99.90;;;;;;5072183;28;19953;-76
2022/07/12 11:38:08;;;;;;;;;;;22.70;99.90;;;;;;5072821;28;19904;-76
2022/07/12 11:40:34;;;;;;;;;;;22.80;99.90;;;;;;5072129;28;20389;-76
2022/07/12 11:43:00;;;;;;;;;;;22.70;99.90;;;;;;5072310;28;19904;-76
2022/07/12 11:45:27;;;;;;;;;;;22.70;99.90;;;;;;5074736;28;20370;-76
2022/07/12 11:47:53;;;;;;;;;;;22.70;99.90;;;;;;5079785;28;20231;-76
2022/07/12 11:50:19;;;;;;;;;;;22.70;99.90;;;;;;5061032;28;19908;-76
2022/07/12 11:52:45;;;;;;;;;;;22.70;99.90;;;;;;5079194;28;19924;-75
2022/07/12 11:55:10;;;;;;;;;;;22.70;99.90;;;;;;5079447;28;19911;-76
2022/07/12 11:57:36;;;;;;;;;;;22.70;99.90;;;;;;5078561;28;19966;-75
2022/07/12 12:00:14;;;;;;;;;;;22.60;99.90;;;;;;5079115;28;19926;-76
2022/07/12 12:02:40;;;;;;;;;;;22.60;99.90;;;;;;5078840;28;19954;-77
2022/07/12 12:05:06;;;;;;;;;;;22.60;99.90;;;;;;5078988;28;20421;-75
2022/07/12 12:07:31;;;;;;;;;;;22.60;99.90;;;;;;5077956;28;19908;-76
2022/07/12 12:09:57;;;;;;;;;;;22.70;99.90;;;;;;5079048;28;19977;-76
2022/07/12 12:12:22;;;;;;;;;;;22.80;99.90;;;;;;5078435;28;19915;-77
2022/07/12 12:14:48;;;;;;;;;;;22.90;99.90;;;;;;5077432;28;20373;-77
2022/07/12 12:17:14;;;;;;;;;;;22.80;99.90;;;;;;5078691;28;19971;-76
2022/07/12 12:19:42;;;;;;;;;;;22.90;99.90;;;;;;5077617;28;19911;-77
2022/07/12 12:22:27;;;;;;;;;;;22.90;99.90;;;;;;5078487;28;19905;-76
2022/07/12 12:24:59;;;;;;;;;;;23.00;99.90;;;;;;5078177;28;19908;-77
2022/07/12 12:27:25;;;;;;;;;;;23.20;99.90;;;;;;5077493;28;19904;-76
2022/07/12 12:29:51;;;;;;;;;;;23.20;99.90;;;;;;5078292;28;19954;-77
2022/07/12 12:32:20;;;;;;;;;;;23.20;99.90;;;;;;5078758;28;19999;-77
2022/07/12 12:35:15;;;;;;;;;;;23.20;99.90;;;;;;5078351;28;19912;-75
2022/07/12 12:37:47;;;;;;;;;;;23.20;99.90;;;;;;5060453;28;19904;-75
2022/07/12 12:40:18;;;;;;;;;;;23.30;99.90;;;;;;5079280;28;19954;-76
2022/07/12 12:42:43;;;;;;;;;;;23.40;99.90;;;;;;5078246;28;20494;-76
2022/07/12 12:45:16;;;;;;;;;;;23.40;99.90;;;;;;5078191;28;19916;-75
2022/07/12 12:47:54;;;;;;;;;;;23.60;99.90;;;;;;5077819;28;19999;-76
2022/07/12 12:50:48;;;;;;;;;;;23.70;99.90;;;;;;5078300;28;19921;-76
2022/07/12 12:53:19;;;;;;;;;;;23.70;99.90;;;;;;5074215;28;19999;-76
2022/07/12 12:55:46;;;;;;;;;;;23.90;99.90;;;;;;5078221;28;20746;-75
2022/07/12 12:58:12;;;;;;;;;;;24.00;99.90;;;;;;5073927;28;19905;-76
2022/07/12 13:00:39;;;;;;;;;;;24.10;99.90;;;;;;5056224;28;19904;-75
2022/07/12 13:03:05;;;;;;;;;;;24.10;99.90;;;;;;5075038;28;19908;-75
2022/07/12 13:05:31;;;;;;;;;;;24.10;99.90;;;;;;5074085;28;19991;-76
2022/07/12 13:07:56;;;;;;;;;;;24.10;99.90;;;;;;5075396;28;19999;-75
2022/07/12 13:10:23;;;;;;;;;;;24.30;99.90;;;;;;5056547;28;19913;-75
2022/07/12 13:12:48;;;;;;;;;;;24.50;99.90;;;;;;5074485;28;19957;-75
2022/07/12 13:15:14;;;;;;;;;;;24.50;99.90;;;;;;5075148;28;20343;-75
2022/07/12 13:17:40;;;;;;;;;;;24.60;99.90;;;;;;5074517;28;19904;-75
2022/07/12 13:20:08;;;;;;;;;;;24.50;99.90;;;;;;5075081;28;19913;-75
2022/07/12 13:22:34;;;;;;;;;;;24.40;99.90;;;;;;5074199;28;19947;-76
2022/07/12 13:25:00;;;;;;;;;;;24.30;99.90;;;;;;5074833;28;19916;-75
2022/07/12 13:27:26;;;;;;;;;;;24.30;99.90;;;;;;5074638;28;20271;-75
2022/07/12 13:29:52;;;;;;;;;;;24.20;99.90;;;;;;5056805;28;19919;-75
2022/07/12 13:32:18;;;;;;;;;;;24.10;99.90;;;;;;5074978;28;19905;-76
2022/07/12 13:34:47;;;;;;;;;;;24.10;99.90;;;;;;5074272;28;20009;-76
2022/07/12 13:37:13;;;;;;;;;;;24.10;99.90;;;;;;5074844;28;19943;-75
2022/07/12 13:42:22;;;;;;;;;;;24.30;99.90;;;;;;5074888;28;19912;-76
2022/07/12 13:44:48;;;;;;;;;;;24.50;99.90;;;;;;5073831;28;19912;-76
2022/07/12 13:47:13;;;;;;;;;;;24.60;99.90;;;;;;5074668;28;20007;-76
2022/07/12 13:49:39;;;;;;;;;;;24.70;99.90;;;;;;5074012;28;20374;-76
2022/07/12 13:52:05;;;;;;;;;;;24.80;99.90;;;;;;5074544;28;19911;-76
2022/07/12 13:54:30;;;;;;;;;;;24.80;99.90;;;;;;5074088;28;19905;-75
2022/07/12 13:56:56;;;;;;;;;;;24.90;99.90;;;;;;5074584;28;19905;-75
2022/07/12 13:59:21;;;;;;;;;;;25.00;99.90;;;;;;5074051;28;19904;-75
2022/07/12 14:01:47;;;;;;;;;;;25.00;99.90;;;;;;5073649;28;19900;-75
2022/07/12 14:04:13;;;;;;;;;;;25.00;99.90;;;;;;5074490;28;20244;-75
2022/07/12 14:06:38;;;;;;;;;;;24.90;99.90;;;;;;5073730;28;19904;-75
2022/07/12 14:09:04;;;;;;;;;;;24.80;99.90;;;;;;5073726;28;20327;-75
2022/07/12 14:11:29;;;;;;;;;;;24.70;99.90;;;;;;5073424;28;19905;-76
2022/07/12 14:13:55;;;;;;;;;;;24.60;99.90;;;;;;5056082;28;20007;-75
2022/07/12 14:16:21;;;;;;;;;;;24.50;99.90;;;;;;5074052;28;19904;-75
2022/07/12 14:18:47;;;;;;;;;;;24.40;99.90;;;;;;5073386;28;20715;-75
2022/07/12 14:21:12;;;;;;;;;;;24.30;99.90;;;;;;5073837;28;19927;-75
2022/07/12 14:23:38;;;;;;;;;;;24.30;99.90;;;;;;5073281;28;19911;-75
2022/07/12 14:26:05;;;;;;;;;;;24.20;99.90;;;;;;5073884;28;19947;-75
2022/07/12 14:28:30;;;;;;;;;;;24.30;99.90;;;;;;5072777;28;19904;-75